Waverly, New York
Current Conditions -  °F | °C
As of 12:43 AM on Friday 28 Nov 2014 (Local Time) from KELM Reporting Station
Light Snow Light Snow  
Wind Chill: 23°   Ceiling: 1500
Heat Index: 28°   Visibility: 4mi
Dew Point: 26°   Wind: 5mph
Humidity: 92%   Direction: 100°E
Pressure: 30.05"   Gusts: NA
Location:  42.01°N, 76.53°W
Report Text: KELM 280543Z AUTO 10004KT 4SM -SN BR OVC015 M02/M03 A3005 RMK AO2 P0000 T10221033
Loading
Personal Weather Stations






























Interactive Weather Map New forecast layout! Learn more

10-Day Weather Forecast

Advertisements
Track Severe Weather on mobile